sensor_id;sensor_type;location;lat;lon;timestamp;P1;durP1;ratioP1;P2;durP2;ratioP2
25870;SDS011;13689;48.590;7.752;2023-02-15T00:00:41;56.05;;;18.00;;
25870;SDS011;13689;48.590;7.752;2023-02-15T00:03:07;60.58;;;18.80;;
25870;SDS011;13689;48.590;7.752;2023-02-15T00:05:33;51.00;;;18.13;;
25870;SDS011;13689;48.590;7.752;2023-02-15T00:07:58;64.88;;;17.70;;
25870;SDS011;13689;48.590;7.752;2023-02-15T00:10:24;43.88;;;15.43;;
25870;SDS011;13689;48.590;7.752;2023-02-15T00:12:49;62.28;;;17.33;;
25870;SDS011;13689;48.590;7.752;2023-02-15T00:15:15;55.08;;;18.13;;
25870;SDS011;13689;48.590;7.752;2023-02-15T00:17:40;56.85;;;16.38;;
25870;SDS011;13689;48.590;7.752;2023-02-15T00:20:06;54.63;;;16.88;;
25870;SDS011;13689;48.590;7.752;2023-02-15T00:22:32;50.45;;;15.82;;
25870;SDS011;13689;48.590;7.752;2023-02-15T00:24:58;50.45;;;16.92;;
25870;SDS011;13689;48.590;7.752;2023-02-15T00:27:23;51.00;;;16.90;;
25870;SDS011;13689;48.590;7.752;2023-02-15T00:29:49;49.42;;;16.77;;
25870;SDS011;13689;48.590;7.752;2023-02-15T00:32:15;45.92;;;15.93;;
25870;SDS011;13689;48.590;7.752;2023-02-15T00:34:40;49.35;;;17.15;;
25870;SDS011;13689;48.590;7.752;2023-02-15T00:37:06;52.33;;;16.70;;
25870;SDS011;13689;48.590;7.752;2023-02-15T00:39:31;49.35;;;14.77;;
25870;SDS011;13689;48.590;7.752;2023-02-15T00:42:04;46.83;;;16.10;;
25870;SDS011;13689;48.590;7.752;2023-02-15T00:44:29;46.28;;;15.82;;
25870;SDS011;13689;48.590;7.752;2023-02-15T00:46:55;48.80;;;16.08;;
25870;SDS011;13689;48.590;7.752;2023-02-15T00:49:21;49.97;;;16.27;;
25870;SDS011;13689;48.590;7.752;2023-02-15T00:51:46;19.02;;;6.32;;
25870;SDS011;13689;48.590;7.752;2023-02-15T00:54:12;60.63;;;17.77;;
25870;SDS011;13689;48.590;7.752;2023-02-15T00:56:37;56.28;;;18.17;;
25870;SDS011;13689;48.590;7.752;2023-02-15T00:59:03;47.63;;;16.48;;
25870;SDS011;13689;48.590;7.752;2023-02-15T01:01:29;57.40;;;18.17;;
25870;SDS011;13689;48.590;7.752;2023-02-15T01:03:54;45.13;;;15.65;;
25870;SDS011;13689;48.590;7.752;2023-02-15T01:06:20;49.95;;;17.58;;
25870;SDS011;13689;48.590;7.752;2023-02-15T01:08:46;36.58;;;11.95;;
25870;SDS011;13689;48.590;7.752;2023-02-15T01:11:13;25.52;;;9.48;;
25870;SDS011;13689;48.590;7.752;2023-02-15T01:13:46;41.97;;;13.85;;
25870;SDS011;13689;48.590;7.752;2023-02-15T01:16:13;40.28;;;14.63;;
25870;SDS011;13689;48.590;7.752;2023-02-15T01:18:39;41.28;;;14.35;;
25870;SDS011;13689;48.590;7.752;2023-02-15T01:21:11;45.72;;;15.45;;
25870;SDS011;13689;48.590;7.752;2023-02-15T01:23:38;46.55;;;16.10;;
25870;SDS011;13689;48.590;7.752;2023-02-15T01:26:04;44.65;;;15.70;;
25870;SDS011;13689;48.590;7.752;2023-02-15T01:28:30;38.25;;;13.93;;
25870;SDS011;13689;48.590;7.752;2023-02-15T01:30:57;45.83;;;16.02;;
25870;SDS011;13689;48.590;7.752;2023-02-15T01:33:24;51.75;;;16.80;;
25870;SDS011;13689;48.590;7.752;2023-02-15T01:35:55;39.28;;;14.07;;
25870;SDS011;13689;48.590;7.752;2023-02-15T01:38:22;42.10;;;14.73;;
25870;SDS011;13689;48.590;7.752;2023-02-15T01:40:50;41.35;;;14.57;;
25870;SDS011;13689;48.590;7.752;2023-02-15T01:43:17;35.03;;;13.40;;
25870;SDS011;13689;48.590;7.752;2023-02-15T01:45:43;43.00;;;15.07;;
25870;SDS011;13689;48.590;7.752;2023-02-15T01:51:07;38.53;;;13.73;;
25870;SDS011;13689;48.590;7.752;2023-02-15T01:53:34;34.88;;;13.82;;
25870;SDS011;13689;48.590;7.752;2023-02-15T01:59:03;39.70;;;13.88;;
25870;SDS011;13689;48.590;7.752;2023-02-15T02:01:32;45.53;;;13.13;;
25870;SDS011;13689;48.590;7.752;2023-02-15T02:06:30;41.95;;;13.73;;
25870;SDS011;13689;48.590;7.752;2023-02-15T02:08:58;41.28;;;13.93;;
25870;SDS011;13689;48.590;7.752;2023-02-15T02:11:23;42.70;;;14.90;;
25870;SDS011;13689;48.590;7.752;2023-02-15T02:13:50;45.10;;;14.20;;
25870;SDS011;13689;48.590;7.752;2023-02-15T02:25:23;36.35;;;12.23;;
25870;SDS011;13689;48.590;7.752;2023-02-15T02:36:22;38.58;;;12.95;;
25870;SDS011;13689;48.590;7.752;2023-02-15T02:49:46;32.35;;;11.02;;
25870;SDS011;13689;48.590;7.752;2023-02-15T02:55:02;41.33;;;13.80;;
25870;SDS011;13689;48.590;7.752;2023-02-15T02:57:30;39.10;;;12.73;;
25870;SDS011;13689;48.590;7.752;2023-02-15T02:59:58;37.75;;;14.13;;
25870;SDS011;13689;48.590;7.752;2023-02-15T03:02:29;38.53;;;14.55;;
25870;SDS011;13689;48.590;7.752;2023-02-15T03:05:04;37.15;;;13.80;;
25870;SDS011;13689;48.590;7.752;2023-02-15T03:07:33;37.72;;;14.35;;
25870;SDS011;13689;48.590;7.752;2023-02-15T03:10:01;44.30;;;13.63;;
25870;SDS011;13689;48.590;7.752;2023-02-15T03:12:34;41.53;;;14.10;;
25870;SDS011;13689;48.590;7.752;2023-02-15T03:15:03;39.78;;;13.18;;
25870;SDS011;13689;48.590;7.752;2023-02-15T03:17:43;39.33;;;12.25;;
25870;SDS011;13689;48.590;7.752;2023-02-15T03:20:16;40.50;;;12.77;;
25870;SDS011;13689;48.590;7.752;2023-02-15T03:22:50;43.50;;;15.23;;
25870;SDS011;13689;48.590;7.752;2023-02-15T03:25:30;32.90;;;13.13;;
25870;SDS011;13689;48.590;7.752;2023-02-15T03:28:11;36.08;;;12.82;;
25870;SDS011;13689;48.590;7.752;2023-02-15T03:30:43;38.88;;;13.95;;
25870;SDS011;13689;48.590;7.752;2023-02-15T03:33:13;41.35;;;14.30;;
25870;SDS011;13689;48.590;7.752;2023-02-15T03:35:52;38.55;;;14.10;;
25870;SDS011;13689;48.590;7.752;2023-02-15T03:38:25;39.45;;;13.18;;
25870;SDS011;13689;48.590;7.752;2023-02-15T03:40:58;41.72;;;14.82;;
25870;SDS011;13689;48.590;7.752;2023-02-15T03:43:38;35.03;;;13.18;;
25870;SDS011;13689;48.590;7.752;2023-02-15T03:46:19;38.72;;;13.52;;
25870;SDS011;13689;48.590;7.752;2023-02-15T03:48:47;33.22;;;12.90;;
25870;SDS011;13689;48.590;7.752;2023-02-15T03:51:18;36.67;;;12.85;;
25870;SDS011;13689;48.590;7.752;2023-02-15T03:53:58;34.40;;;12.68;;
25870;SDS011;13689;48.590;7.752;2023-02-15T03:56:30;28.10;;;11.45;;
25870;SDS011;13689;48.590;7.752;2023-02-15T03:58:56;31.08;;;11.35;;
25870;SDS011;13689;48.590;7.752;2023-02-15T04:02:26;36.90;;;12.63;;
25870;SDS011;13689;48.590;7.752;2023-02-15T04:04:37;35.35;;;12.57;;
25870;SDS011;13689;48.590;7.752;2023-02-15T04:07:07;33.72;;;13.18;;
25870;SDS011;13689;48.590;7.752;2023-02-15T04:09:34;33.97;;;13.20;;
25870;SDS011;13689;48.590;7.752;2023-02-15T04:12:18;35.20;;;11.85;;
25870;SDS011;13689;48.590;7.752;2023-02-15T04:14:44;35.63;;;13.40;;
25870;SDS011;13689;48.590;7.752;2023-02-15T04:17:28;38.50;;;12.93;;
25870;SDS011;13689;48.590;7.752;2023-02-15T04:19:54;37.22;;;13.68;;
25870;SDS011;13689;48.590;7.752;2023-02-15T04:22:38;33.42;;;11.80;;
25870;SDS011;13689;48.590;7.752;2023-02-15T04:25:22;40.80;;;13.13;;
25870;SDS011;13689;48.590;7.752;2023-02-15T04:27:49;37.28;;;12.88;;
25870;SDS011;13689;48.590;7.752;2023-02-15T04:30:20;39.80;;;15.27;;
25870;SDS011;13689;48.590;7.752;2023-02-15T04:32:47;32.17;;;12.60;;
25870;SDS011;13689;48.590;7.752;2023-02-15T04:35:14;36.47;;;12.77;;
25870;SDS011;13689;48.590;7.752;2023-02-15T04:37:40;33.92;;;12.52;;
25870;SDS011;13689;48.590;7.752;2023-02-15T04:40:07;36.13;;;13.75;;
25870;SDS011;13689;48.590;7.752;2023-02-15T04:42:34;30.42;;;12.85;;
25870;SDS011;13689;48.590;7.752;2023-02-15T04:45:00;36.33;;;12.93;;
25870;SDS011;13689;48.590;7.752;2023-02-15T04:47:25;32.05;;;12.73;;
25870;SDS011;13689;48.590;7.752;2023-02-15T04:49:51;26.50;;;10.93;;
25870;SDS011;13689;48.590;7.752;2023-02-15T04:52:17;33.60;;;12.80;;
25870;SDS011;13689;48.590;7.752;2023-02-15T04:54:42;33.17;;;13.07;;
25870;SDS011;13689;48.590;7.752;2023-02-15T04:57:09;26.42;;;11.50;;
25870;SDS011;13689;48.590;7.752;2023-02-15T04:59:34;33.72;;;12.85;;
25870;SDS011;13689;48.590;7.752;2023-02-15T05:02:00;35.47;;;13.02;;
25870;SDS011;13689;48.590;7.752;2023-02-15T05:04:26;38.45;;;14.38;;
25870;SDS011;13689;48.590;7.752;2023-02-15T05:06:51;35.00;;;13.93;;
25870;SDS011;13689;48.590;7.752;2023-02-15T05:09:17;36.83;;;12.80;;
25870;SDS011;13689;48.590;7.752;2023-02-15T05:11:43;36.97;;;13.18;;
25870;SDS011;13689;48.590;7.752;2023-02-15T05:14:08;33.38;;;12.15;;
25870;SDS011;13689;48.590;7.752;2023-02-15T05:16:34;37.08;;;13.38;;
25870;SDS011;13689;48.590;7.752;2023-02-15T05:19:00;36.35;;;13.15;;
25870;SDS011;13689;48.590;7.752;2023-02-15T05:21:25;40.72;;;13.52;;
25870;SDS011;13689;48.590;7.752;2023-02-15T05:23:51;30.38;;;12.88;;
25870;SDS011;13689;48.590;7.752;2023-02-15T05:26:18;36.78;;;14.98;;
25870;SDS011;13689;48.590;7.752;2023-02-15T05:29:05;37.60;;;14.40;;
25870;SDS011;13689;48.590;7.752;2023-02-15T05:31:31;33.22;;;12.90;;
25870;SDS011;13689;48.590;7.752;2023-02-15T05:33:57;36.70;;;13.50;;
25870;SDS011;13689;48.590;7.752;2023-02-15T05:36:23;37.17;;;13.38;;
25870;SDS011;13689;48.590;7.752;2023-02-15T05:38:49;36.55;;;13.15;;
25870;SDS011;13689;48.590;7.752;2023-02-15T05:41:15;36.10;;;12.75;;
25870;SDS011;13689;48.590;7.752;2023-02-15T05:43:40;36.70;;;13.88;;
25870;SDS011;13689;48.590;7.752;2023-02-15T05:46:06;35.97;;;13.43;;
25870;SDS011;13689;48.590;7.752;2023-02-15T05:48:32;32.38;;;12.95;;
25870;SDS011;13689;48.590;7.752;2023-02-15T05:51:05;37.10;;;14.10;;
25870;SDS011;13689;48.590;7.752;2023-02-15T05:53:33;33.17;;;14.02;;
25870;SDS011;13689;48.590;7.752;2023-02-15T05:56:01;35.08;;;12.90;;
25870;SDS011;13689;48.590;7.752;2023-02-15T05:58:34;33.38;;;14.25;;
25870;SDS011;13689;48.590;7.752;2023-02-15T06:01:12;35.58;;;13.75;;
25870;SDS011;13689;48.590;7.752;2023-02-15T06:03:38;49.47;;;13.93;;
25870;SDS011;13689;48.590;7.752;2023-02-15T06:06:03;36.38;;;13.57;;
25870;SDS011;13689;48.590;7.752;2023-02-15T06:08:30;39.42;;;14.15;;
25870;SDS011;13689;48.590;7.752;2023-02-15T06:10:57;33.55;;;13.45;;
25870;SDS011;13689;48.590;7.752;2023-02-15T06:13:22;32.03;;;12.20;;
25870;SDS011;13689;48.590;7.752;2023-02-15T06:15:48;37.28;;;13.05;;
25870;SDS011;13689;48.590;7.752;2023-02-15T06:18:13;36.13;;;13.02;;
25870;SDS011;13689;48.590;7.752;2023-02-15T06:20:39;34.90;;;12.77;;
25870;SDS011;13689;48.590;7.752;2023-02-15T06:23:05;36.78;;;13.10;;
25870;SDS011;13689;48.590;7.752;2023-02-15T06:25:30;31.02;;;12.63;;
25870;SDS011;13689;48.590;7.752;2023-02-15T06:27:56;34.75;;;13.90;;
25870;SDS011;13689;48.590;7.752;2023-02-15T06:30:21;42.08;;;15.00;;
25870;SDS011;13689;48.590;7.752;2023-02-15T06:32:47;42.75;;;15.18;;
25870;SDS011;13689;48.590;7.752;2023-02-15T06:35:12;38.22;;;13.35;;
25870;SDS011;13689;48.590;7.752;2023-02-15T06:37:38;36.05;;;14.30;;
25870;SDS011;13689;48.590;7.752;2023-02-15T06:40:04;44.85;;;14.80;;
25870;SDS011;13689;48.590;7.752;2023-02-15T06:42:31;36.72;;;14.38;;
25870;SDS011;13689;48.590;7.752;2023-02-15T06:44:56;35.63;;;12.80;;
25870;SDS011;13689;48.590;7.752;2023-02-15T06:47:22;37.25;;;13.15;;
25870;SDS011;13689;48.590;7.752;2023-02-15T06:49:47;36.53;;;13.18;;
25870;SDS011;13689;48.590;7.752;2023-02-15T06:52:13;40.10;;;14.18;;
25870;SDS011;13689;48.590;7.752;2023-02-15T06:54:39;32.60;;;13.32;;
25870;SDS011;13689;48.590;7.752;2023-02-15T06:57:04;38.50;;;14.30;;
25870;SDS011;13689;48.590;7.752;2023-02-15T06:59:30;41.80;;;14.50;;
25870;SDS011;13689;48.590;7.752;2023-02-15T07:01:55;40.53;;;14.60;;
25870;SDS011;13689;48.590;7.752;2023-02-15T07:04:21;39.08;;;14.00;;
25870;SDS011;13689;48.590;7.752;2023-02-15T07:06:46;37.08;;;13.70;;
25870;SDS011;13689;48.590;7.752;2023-02-15T07:09:12;42.40;;;14.98;;
25870;SDS011;13689;48.590;7.752;2023-02-15T07:11:38;29.73;;;12.05;;
25870;SDS011;13689;48.590;7.752;2023-02-15T07:14:22;41.60;;;14.55;;
25870;SDS011;13689;48.590;7.752;2023-02-15T07:16:48;46.55;;;15.80;;
25870;SDS011;13689;48.590;7.752;2023-02-15T07:19:13;39.13;;;13.98;;
25870;SDS011;13689;48.590;7.752;2023-02-15T07:21:39;33.80;;;14.23;;
25870;SDS011;13689;48.590;7.752;2023-02-15T07:24:05;36.50;;;14.80;;
25870;SDS011;13689;48.590;7.752;2023-02-15T07:26:31;42.92;;;16.35;;
25870;SDS011;13689;48.590;7.752;2023-02-15T07:28:57;41.70;;;16.67;;
25870;SDS011;13689;48.590;7.752;2023-02-15T07:31:22;42.50;;;16.35;;
25870;SDS011;13689;48.590;7.752;2023-02-15T07:33:48;40.65;;;15.63;;
25870;SDS011;13689;48.590;7.752;2023-02-15T07:36:13;47.30;;;16.00;;
25870;SDS011;13689;48.590;7.752;2023-02-15T07:38:40;46.80;;;15.82;;
25870;SDS011;13689;48.590;7.752;2023-02-15T07:41:07;47.25;;;18.70;;
25870;SDS011;13689;48.590;7.752;2023-02-15T07:43:36;42.75;;;15.07;;
25870;SDS011;13689;48.590;7.752;2023-02-15T07:48:35;40.15;;;14.65;;
25870;SDS011;13689;48.590;7.752;2023-02-15T07:51:02;34.10;;;13.27;;
25870;SDS011;13689;48.590;7.752;2023-02-15T07:53:29;33.30;;;14.23;;
25870;SDS011;13689;48.590;7.752;2023-02-15T07:55:58;38.13;;;15.00;;
25870;SDS011;13689;48.590;7.752;2023-02-15T07:58:27;34.47;;;12.82;;
25870;SDS011;13689;48.590;7.752;2023-02-15T08:01:12;38.00;;;14.20;;
25870;SDS011;13689;48.590;7.752;2023-02-15T08:03:41;24.83;;;8.95;;
25870;SDS011;13689;48.590;7.752;2023-02-15T08:06:07;33.92;;;13.88;;
25870;SDS011;13689;48.590;7.752;2023-02-15T08:08:33;37.70;;;13.90;;
25870;SDS011;13689;48.590;7.752;2023-02-15T08:11:04;35.25;;;13.23;;
25870;SDS011;13689;48.590;7.752;2023-02-15T08:13:49;36.07;;;14.40;;
25870;SDS011;13689;48.590;7.752;2023-02-15T08:16:30;35.55;;;14.55;;
25870;SDS011;13689;48.590;7.752;2023-02-15T08:18:58;38.72;;;17.00;;
25870;SDS011;13689;48.590;7.752;2023-02-15T08:21:26;38.67;;;14.50;;
25870;SDS011;13689;48.590;7.752;2023-02-15T08:23:54;29.10;;;11.23;;
25870;SDS011;13689;48.590;7.752;2023-02-15T08:26:21;38.55;;;15.90;;
25870;SDS011;13689;48.590;7.752;2023-02-15T08:28:47;39.35;;;15.10;;
25870;SDS011;13689;48.590;7.752;2023-02-15T08:31:14;40.15;;;14.38;;
25870;SDS011;13689;48.590;7.752;2023-02-15T08:33:41;34.30;;;13.25;;
25870;SDS011;13689;48.590;7.752;2023-02-15T08:36:08;38.10;;;14.45;;
25870;SDS011;13689;48.590;7.752;2023-02-15T08:38:36;33.30;;;13.35;;
25870;SDS011;13689;48.590;7.752;2023-02-15T08:41:11;34.85;;;14.85;;
25870;SDS011;13689;48.590;7.752;2023-02-15T08:43:46;39.97;;;14.63;;
25870;SDS011;13689;48.590;7.752;2023-02-15T08:48:39;37.72;;;14.80;;
25870;SDS011;13689;48.590;7.752;2023-02-15T08:51:06;38.85;;;13.70;;
25870;SDS011;13689;48.590;7.752;2023-02-15T08:53:38;42.85;;;14.90;;
25870;SDS011;13689;48.590;7.752;2023-02-15T08:56:05;40.10;;;16.02;;
25870;SDS011;13689;48.590;7.752;2023-02-15T08:58:31;46.78;;;16.77;;
25870;SDS011;13689;48.590;7.752;2023-02-15T09:00:57;46.55;;;16.73;;
25870;SDS011;13689;48.590;7.752;2023-02-15T09:03:23;50.20;;;17.10;;
25870;SDS011;13689;48.590;7.752;2023-02-15T09:05:49;39.75;;;15.63;;
25870;SDS011;13689;48.590;7.752;2023-02-15T09:08:15;47.83;;;16.90;;
25870;SDS011;13689;48.590;7.752;2023-02-15T09:10:40;48.20;;;16.55;;
25870;SDS011;13689;48.590;7.752;2023-02-15T09:13:06;40.05;;;16.27;;
25870;SDS011;13689;48.590;7.752;2023-02-15T09:15:32;38.88;;;16.45;;
25870;SDS011;13689;48.590;7.752;2023-02-15T09:17:58;41.97;;;15.00;;
25870;SDS011;13689;48.590;7.752;2023-02-15T09:20:26;44.15;;;16.30;;
25870;SDS011;13689;48.590;7.752;2023-02-15T09:22:53;46.65;;;16.40;;
25870;SDS011;13689;48.590;7.752;2023-02-15T09:25:19;46.35;;;15.00;;
25870;SDS011;13689;48.590;7.752;2023-02-15T09:27:45;46.22;;;17.27;;
25870;SDS011;13689;48.590;7.752;2023-02-15T09:30:10;41.70;;;15.00;;
25870;SDS011;13689;48.590;7.752;2023-02-15T09:32:37;44.60;;;16.30;;
25870;SDS011;13689;48.590;7.752;2023-02-15T09:35:02;46.90;;;16.95;;
25870;SDS011;13689;48.590;7.752;2023-02-15T09:37:29;45.65;;;17.00;;
25870;SDS011;13689;48.590;7.752;2023-02-15T09:39:56;43.22;;;17.35;;
25870;SDS011;13689;48.590;7.752;2023-02-15T09:42:39;43.10;;;18.05;;
25870;SDS011;13689;48.590;7.752;2023-02-15T09:50:54;44.85;;;18.27;;
25870;SDS011;13689;48.590;7.752;2023-02-15T09:53:37;41.92;;;15.15;;
25870;SDS011;13689;48.590;7.752;2023-02-15T09:56:06;40.05;;;15.45;;
25870;SDS011;13689;48.590;7.752;2023-02-15T10:15:44;47.30;;;16.48;;
25870;SDS011;13689;48.590;7.752;2023-02-15T10:23:50;47.95;;;17.92;;
25870;SDS011;13689;48.590;7.752;2023-02-15T10:26:42;48.97;;;19.40;;
25870;SDS011;13689;48.590;7.752;2023-02-15T10:34:51;48.05;;;18.10;;
25870;SDS011;13689;48.590;7.752;2023-02-15T10:40:25;47.58;;;18.58;;
25870;SDS011;13689;48.590;7.752;2023-02-15T10:43:08;43.90;;;18.02;;
25870;SDS011;13689;48.590;7.752;2023-02-15T10:51:00;44.45;;;17.35;;
25870;SDS011;13689;48.590;7.752;2023-02-15T10:56:16;50.28;;;19.98;;
25870;SDS011;13689;48.590;7.752;2023-02-15T10:59:15;41.72;;;18.13;;
25870;SDS011;13689;48.590;7.752;2023-02-15T11:02:32;41.90;;;17.83;;
25870;SDS011;13689;48.590;7.752;2023-02-15T11:08:07;44.70;;;19.08;;
25870;SDS011;13689;48.590;7.752;2023-02-15T11:13:14;45.03;;;18.15;;
25870;SDS011;13689;48.590;7.752;2023-02-15T11:15:44;48.45;;;19.50;;
25870;SDS011;13689;48.590;7.752;2023-02-15T11:20:57;41.63;;;17.77;;
25870;SDS011;13689;48.590;7.752;2023-02-15T11:23:24;48.47;;;18.10;;
25870;SDS011;13689;48.590;7.752;2023-02-15T11:25:58;42.45;;;19.00;;
25870;SDS011;13689;48.590;7.752;2023-02-15T11:31:21;43.00;;;19.17;;
25870;SDS011;13689;48.590;7.752;2023-02-15T11:33:50;43.67;;;17.65;;
25870;SDS011;13689;48.590;7.752;2023-02-15T11:36:21;41.28;;;18.13;;
25870;SDS011;13689;48.590;7.752;2023-02-15T11:38:51;52.85;;;20.73;;
25870;SDS011;13689;48.590;7.752;2023-02-15T11:41:24;48.75;;;21.73;;
25870;SDS011;13689;48.590;7.752;2023-02-15T11:43:57;40.88;;;15.68;;
25870;SDS011;13689;48.590;7.752;2023-02-15T11:46:40;38.75;;;17.60;;
25870;SDS011;13689;48.590;7.752;2023-02-15T11:51:57;50.42;;;20.23;;
25870;SDS011;13689;48.590;7.752;2023-02-15T11:56:55;46.92;;;19.52;;
25870;SDS011;13689;48.590;7.752;2023-02-15T11:59:27;50.75;;;20.65;;
25870;SDS011;13689;48.590;7.752;2023-02-15T12:01:57;44.45;;;18.48;;
25870;SDS011;13689;48.590;7.752;2023-02-15T12:07:03;52.17;;;20.27;;
25870;SDS011;13689;48.590;7.752;2023-02-15T12:12:37;45.92;;;19.65;;
25870;SDS011;13689;48.590;7.752;2023-02-15T12:15:06;45.88;;;20.25;;
25870;SDS011;13689;48.590;7.752;2023-02-15T12:20:04;54.83;;;20.40;;
25870;SDS011;13689;48.590;7.752;2023-02-15T12:22:37;45.30;;;19.10;;
25870;SDS011;13689;48.590;7.752;2023-02-15T12:25:26;41.53;;;18.42;;
25870;SDS011;13689;48.590;7.752;2023-02-15T12:27:54;45.72;;;20.17;;
25870;SDS011;13689;48.590;7.752;2023-02-15T12:36:29;50.40;;;20.27;;
25870;SDS011;13689;48.590;7.752;2023-02-15T12:41:38;49.00;;;20.60;;
25870;SDS011;13689;48.590;7.752;2023-02-15T12:44:19;46.65;;;20.63;;
25870;SDS011;13689;48.590;7.752;2023-02-15T12:46:58;50.17;;;21.27;;
25870;SDS011;13689;48.590;7.752;2023-02-15T12:49:33;49.70;;;20.98;;
25870;SDS011;13689;48.590;7.752;2023-02-15T12:52:01;36.97;;;15.75;;
25870;SDS011;13689;48.590;7.752;2023-02-15T12:54:40;54.50;;;20.63;;
25870;SDS011;13689;48.590;7.752;2023-02-15T13:00:00;51.45;;;22.02;;
25870;SDS011;13689;48.590;7.752;2023-02-15T13:07:38;56.97;;;21.55;;
25870;SDS011;13689;48.590;7.752;2023-02-15T13:10:18;48.15;;;20.80;;
25870;SDS011;13689;48.590;7.752;2023-02-15T13:13:10;53.55;;;21.70;;
25870;SDS011;13689;48.590;7.752;2023-02-15T13:15:43;52.83;;;21.83;;
25870;SDS011;13689;48.590;7.752;2023-02-15T13:18:13;58.10;;;23.02;;
25870;SDS011;13689;48.590;7.752;2023-02-15T13:20:41;53.38;;;21.15;;
25870;SDS011;13689;48.590;7.752;2023-02-15T13:25:47;53.90;;;20.80;;
25870;SDS011;13689;48.590;7.752;2023-02-15T13:28:15;54.30;;;21.85;;
25870;SDS011;13689;48.590;7.752;2023-02-15T13:30:45;53.35;;;22.02;;
25870;SDS011;13689;48.590;7.752;2023-02-15T13:41:30;57.47;;;22.67;;
25870;SDS011;13689;48.590;7.752;2023-02-15T13:44:04;52.47;;;21.67;;
25870;SDS011;13689;48.590;7.752;2023-02-15T13:47:30;52.78;;;20.42;;
25870;SDS011;13689;48.590;7.752;2023-02-15T13:52:42;56.03;;;22.30;;
25870;SDS011;13689;48.590;7.752;2023-02-15T14:01:04;56.20;;;22.92;;
25870;SDS011;13689;48.590;7.752;2023-02-15T14:06:20;54.17;;;24.42;;
25870;SDS011;13689;48.590;7.752;2023-02-15T14:09:20;61.88;;;24.70;;
25870;SDS011;13689;48.590;7.752;2023-02-15T14:22:18;54.72;;;24.45;;
25870;SDS011;13689;48.590;7.752;2023-02-15T14:24:49;57.65;;;21.63;;
25870;SDS011;13689;48.590;7.752;2023-02-15T14:30:20;56.85;;;23.15;;
25870;SDS011;13689;48.590;7.752;2023-02-15T14:32:51;41.38;;;17.30;;
25870;SDS011;13689;48.590;7.752;2023-02-15T14:35:27;62.75;;;27.23;;
25870;SDS011;13689;48.590;7.752;2023-02-15T14:46:37;62.90;;;26.15;;
25870;SDS011;13689;48.590;7.752;2023-02-15T14:54:10;62.30;;;26.10;;
25870;SDS011;13689;48.590;7.752;2023-02-15T15:00:27;62.20;;;25.60;;
25870;SDS011;13689;48.590;7.752;2023-02-15T15:02:17;61.95;;;23.95;;
25870;SDS011;13689;48.590;7.752;2023-02-15T15:07:47;45.53;;;19.13;;
25870;SDS011;13689;48.590;7.752;2023-02-15T15:12:43;40.00;;;14.80;;
25870;SDS011;13689;48.590;7.752;2023-02-15T15:15:14;23.65;;;8.75;;
25870;SDS011;13689;48.590;7.752;2023-02-15T15:18:08;65.15;;;24.65;;
25870;SDS011;13689;48.590;7.752;2023-02-15T15:29:00;53.75;;;22.17;;
25870;SDS011;13689;48.590;7.752;2023-02-15T15:34:01;63.78;;;25.27;;
25870;SDS011;13689;48.590;7.752;2023-02-15T15:36:47;63.78;;;25.58;;
25870;SDS011;13689;48.590;7.752;2023-02-15T15:42:48;62.72;;;24.95;;
25870;SDS011;13689;48.590;7.752;2023-02-15T15:50:28;46.42;;;18.58;;
25870;SDS011;13689;48.590;7.752;2023-02-15T15:52:57;71.45;;;27.15;;
25870;SDS011;13689;48.590;7.752;2023-02-15T15:55:25;17.70;;;7.18;;
25870;SDS011;13689;48.590;7.752;2023-02-15T15:57:55;56.63;;;18.55;;
25870;SDS011;13689;48.590;7.752;2023-02-15T16:00:35;71.15;;;27.13;;
25870;SDS011;13689;48.590;7.752;2023-02-15T16:05:45;29.35;;;11.95;;
25870;SDS011;13689;48.590;7.752;2023-02-15T16:08:11;49.78;;;19.80;;
25870;SDS011;13689;48.590;7.752;2023-02-15T16:10:36;50.58;;;19.15;;
25870;SDS011;13689;48.590;7.752;2023-02-15T16:13:04;16.08;;;7.05;;
25870;SDS011;13689;48.590;7.752;2023-02-15T16:15:35;49.58;;;17.80;;
25870;SDS011;13689;48.590;7.752;2023-02-15T16:18:17;64.63;;;23.23;;
25870;SDS011;13689;48.590;7.752;2023-02-15T16:20:55;25.20;;;9.80;;
25870;SDS011;13689;48.590;7.752;2023-02-15T16:28:55;63.97;;;25.50;;
25870;SDS011;13689;48.590;7.752;2023-02-15T16:31:21;69.15;;;26.98;;
25870;SDS011;13689;48.590;7.752;2023-02-15T16:33:47;66.40;;;25.10;;
25870;SDS011;13689;48.590;7.752;2023-02-15T16:36:24;57.17;;;22.50;;
25870;SDS011;13689;48.590;7.752;2023-02-15T16:41:27;65.35;;;21.65;;
25870;SDS011;13689;48.590;7.752;2023-02-15T16:43:55;69.82;;;26.25;;
25870;SDS011;13689;48.590;7.752;2023-02-15T16:46:33;80.25;;;26.35;;
25870;SDS011;13689;48.590;7.752;2023-02-15T16:49:17;60.92;;;19.67;;
25870;SDS011;13689;48.590;7.752;2023-02-15T16:51:54;70.03;;;26.52;;
25870;SDS011;13689;48.590;7.752;2023-02-15T16:54:24;70.45;;;26.88;;
25870;SDS011;13689;48.590;7.752;2023-02-15T16:56:51;52.67;;;19.08;;
25870;SDS011;13689;48.590;7.752;2023-02-15T17:00:00;73.50;;;27.83;;
25870;SDS011;13689;48.590;7.752;2023-02-15T17:02:19;70.47;;;25.55;;
25870;SDS011;13689;48.590;7.752;2023-02-15T17:07:32;68.60;;;26.85;;
25870;SDS011;13689;48.590;7.752;2023-02-15T17:09:58;19.15;;;8.02;;
25870;SDS011;13689;48.590;7.752;2023-02-15T17:12:44;63.13;;;22.92;;
25870;SDS011;13689;48.590;7.752;2023-02-15T17:18:05;63.97;;;24.73;;
25870;SDS011;13689;48.590;7.752;2023-02-15T17:20:48;25.95;;;9.13;;
25870;SDS011;13689;48.590;7.752;2023-02-15T17:25:58;64.07;;;25.40;;
25870;SDS011;13689;48.590;7.752;2023-02-15T17:28:30;73.35;;;29.25;;
25870;SDS011;13689;48.590;7.752;2023-02-15T17:30:57;63.05;;;24.35;;
25870;SDS011;13689;48.590;7.752;2023-02-15T17:41:24;69.68;;;26.00;;
25870;SDS011;13689;48.590;7.752;2023-02-15T17:43:50;74.63;;;27.48;;
25870;SDS011;13689;48.590;7.752;2023-02-15T17:46:16;70.07;;;26.02;;
25870;SDS011;13689;48.590;7.752;2023-02-15T17:48:45;71.80;;;26.30;;
25870;SDS011;13689;48.590;7.752;2023-02-15T17:51:13;76.38;;;28.33;;
25870;SDS011;13689;48.590;7.752;2023-02-15T17:53:40;74.50;;;27.73;;
25870;SDS011;13689;48.590;7.752;2023-02-15T17:56:26;72.50;;;26.15;;
25870;SDS011;13689;48.590;7.752;2023-02-15T17:58:52;76.93;;;28.33;;
25870;SDS011;13689;48.590;7.752;2023-02-15T18:01:17;82.78;;;28.45;;
25870;SDS011;13689;48.590;7.752;2023-02-15T18:04:03;77.28;;;27.20;;
25870;SDS011;13689;48.590;7.752;2023-02-15T18:06:49;72.63;;;27.88;;
25870;SDS011;13689;48.590;7.752;2023-02-15T18:09:33;71.63;;;28.67;;
25870;SDS011;13689;48.590;7.752;2023-02-15T18:14:47;78.35;;;28.35;;
25870;SDS011;13689;48.590;7.752;2023-02-15T18:17:14;80.45;;;28.38;;
25870;SDS011;13689;48.590;7.752;2023-02-15T18:19:41;80.43;;;29.15;;
25870;SDS011;13689;48.590;7.752;2023-02-15T18:24:35;79.43;;;28.63;;
25870;SDS011;13689;48.590;7.752;2023-02-15T18:27:01;83.38;;;28.63;;
25870;SDS011;13689;48.590;7.752;2023-02-15T18:29:28;85.70;;;29.48;;
25870;SDS011;13689;48.590;7.752;2023-02-15T18:31:54;83.50;;;29.05;;
25870;SDS011;13689;48.590;7.752;2023-02-15T18:34:28;86.75;;;30.33;;
25870;SDS011;13689;48.590;7.752;2023-02-15T18:36:57;83.75;;;31.23;;
25870;SDS011;13689;48.590;7.752;2023-02-15T18:39:28;86.15;;;31.17;;